sensor_id;sensor_type;location;lat;lon;timestamp;temperature;humidity
1381;DHT22;684;48.342;10.096;2022-07-25T00:02:03;22.70;20.60
1381;DHT22;684;48.342;10.096;2022-07-25T00:04:30;22.70;20.70
1381;DHT22;684;48.342;10.096;2022-07-25T00:06:56;22.70;20.80
1381;DHT22;684;48.342;10.096;2022-07-25T00:09:23;22.60;21.10
1381;DHT22;684;48.342;10.096;2022-07-25T00:11:50;22.60;21.10
1381;DHT22;684;48.342;10.096;2022-07-25T00:14:17;22.60;21.00
1381;DHT22;684;48.342;10.096;2022-07-25T00:16:45;22.60;21.30
1381;DHT22;684;48.342;10.096;2022-07-25T00:19:12;22.50;21.30
1381;DHT22;684;48.342;10.096;2022-07-25T00:21:39;22.50;21.40
1381;DHT22;684;48.342;10.096;2022-07-25T00:24:06;22.50;21.50
1381;DHT22;684;48.342;10.096;2022-07-25T00:26:33;22.50;21.60
1381;DHT22;684;48.342;10.096;2022-07-25T00:29:00;22.40;21.50
1381;DHT22;684;48.342;10.096;2022-07-25T00:31:27;22.40;21.40
1381;DHT22;684;48.342;10.096;2022-07-25T00:33:55;22.40;21.40
1381;DHT22;684;48.342;10.096;2022-07-25T00:36:21;22.40;21.40
1381;DHT22;684;48.342;10.096;2022-07-25T00:38:48;22.30;21.90
1381;DHT22;684;48.342;10.096;2022-07-25T00:41:15;22.20;22.30
1381;DHT22;684;48.342;10.096;2022-07-25T00:43:42;22.30;22.70
1381;DHT22;684;48.342;10.096;2022-07-25T00:46:11;22.20;23.00
1381;DHT22;684;48.342;10.096;2022-07-25T00:48:38;22.10;23.10
1381;DHT22;684;48.342;10.096;2022-07-25T00:51:07;22.10;22.70
1381;DHT22;684;48.342;10.096;2022-07-25T00:53:34;22.10;22.70
1381;DHT22;684;48.342;10.096;2022-07-25T00:56:01;22.10;22.60
1381;DHT22;684;48.342;10.096;2022-07-25T00:58:28;22.10;22.60
1381;DHT22;684;48.342;10.096;2022-07-25T01:00:55;22.10;22.80
1381;DHT22;684;48.342;10.096;2022-07-25T01:03:22;22.10;22.80
1381;DHT22;684;48.342;10.096;2022-07-25T01:05:49;22.00;23.10
1381;DHT22;684;48.342;10.096;2022-07-25T01:08:18;22.00;23.20
1381;DHT22;684;48.342;10.096;2022-07-25T01:10:46;21.90;23.70
1381;DHT22;684;48.342;10.096;2022-07-25T01:13:14;21.90;23.80
1381;DHT22;684;48.342;10.096;2022-07-25T01:15:41;21.80;23.80
1381;DHT22;684;48.342;10.096;2022-07-25T01:18:08;21.80;24.00
1381;DHT22;684;48.342;10.096;2022-07-25T01:20:36;21.80;23.80
1381;DHT22;684;48.342;10.096;2022-07-25T01:23:03;21.80;23.90
1381;DHT22;684;48.342;10.096;2022-07-25T01:25:30;21.70;23.90
1381;DHT22;684;48.342;10.096;2022-07-25T01:27:57;21.70;24.20
1381;DHT22;684;48.342;10.096;2022-07-25T01:30:24;21.60;24.30
1381;DHT22;684;48.342;10.096;2022-07-25T01:32:51;21.60;24.80
1381;DHT22;684;48.342;10.096;2022-07-25T01:35:18;21.60;24.50
1381;DHT22;684;48.342;10.096;2022-07-25T01:37:46;21.60;24.30
1381;DHT22;684;48.342;10.096;2022-07-25T01:40:14;21.60;25.00
1381;DHT22;684;48.342;10.096;2022-07-25T01:42:40;21.50;24.20
1381;DHT22;684;48.342;10.096;2022-07-25T01:45:08;21.50;24.50
1381;DHT22;684;48.342;10.096;2022-07-25T01:47:35;21.50;25.00
1381;DHT22;684;48.342;10.096;2022-07-25T01:50:03;21.40;25.00
1381;DHT22;684;48.342;10.096;2022-07-25T01:52:29;21.30;25.20
1381;DHT22;684;48.342;10.096;2022-07-25T01:54:58;21.30;25.30
1381;DHT22;684;48.342;10.096;2022-07-25T01:57:25;21.30;25.20
1381;DHT22;684;48.342;10.096;2022-07-25T01:59:51;21.30;25.10
1381;DHT22;684;48.342;10.096;2022-07-25T02:02:18;21.30;25.30
1381;DHT22;684;48.342;10.096;2022-07-25T02:04:45;21.30;25.00
1381;DHT22;684;48.342;10.096;2022-07-25T02:07:11;21.30;24.90
1381;DHT22;684;48.342;10.096;2022-07-25T02:09:38;21.30;25.00
1381;DHT22;684;48.342;10.096;2022-07-25T02:12:07;21.30;24.50
1381;DHT22;684;48.342;10.096;2022-07-25T02:14:34;21.20;24.40
1381;DHT22;684;48.342;10.096;2022-07-25T02:17:01;21.20;24.70
1381;DHT22;684;48.342;10.096;2022-07-25T02:19:28;21.20;25.00
1381;DHT22;684;48.342;10.096;2022-07-25T02:21:54;21.20;25.10
1381;DHT22;684;48.342;10.096;2022-07-25T02:24:21;21.20;25.00
1381;DHT22;684;48.342;10.096;2022-07-25T02:26:48;21.20;24.70
1381;DHT22;684;48.342;10.096;2022-07-25T02:29:16;21.20;25.00
1381;DHT22;684;48.342;10.096;2022-07-25T02:31:43;21.20;25.00
1381;DHT22;684;48.342;10.096;2022-07-25T02:34:10;21.20;25.00
1381;DHT22;684;48.342;10.096;2022-07-25T02:36:36;21.20;25.00
1381;DHT22;684;48.342;10.096;2022-07-25T02:39:03;21.20;24.80
1381;DHT22;684;48.342;10.096;2022-07-25T02:41:30;21.20;24.80
1381;DHT22;684;48.342;10.096;2022-07-25T02:43:57;21.20;24.70
1381;DHT22;684;48.342;10.096;2022-07-25T02:46:25;21.20;24.80
1381;DHT22;684;48.342;10.096;2022-07-25T02:48:52;21.10;25.20
1381;DHT22;684;48.342;10.096;2022-07-25T02:51:18;21.10;24.90
1381;DHT22;684;48.342;10.096;2022-07-25T02:53:45;21.10;25.10
1381;DHT22;684;48.342;10.096;2022-07-25T02:56:12;21.00;25.10
1381;DHT22;684;48.342;10.096;2022-07-25T02:58:39;21.00;25.10
1381;DHT22;684;48.342;10.096;2022-07-25T03:01:05;20.90;25.20
1381;DHT22;684;48.342;10.096;2022-07-25T03:03:33;20.90;25.20
1381;DHT22;684;48.342;10.096;2022-07-25T03:06:00;20.90;25.20
1381;DHT22;684;48.342;10.096;2022-07-25T03:08:27;20.90;25.10
1381;DHT22;684;48.342;10.096;2022-07-25T03:10:54;20.90;25.20
1381;DHT22;684;48.342;10.096;2022-07-25T03:13:21;20.80;25.10
1381;DHT22;684;48.342;10.096;2022-07-25T03:15:47;20.80;25.00
1381;DHT22;684;48.342;10.096;2022-07-25T03:18:14;20.80;25.00
1381;DHT22;684;48.342;10.096;2022-07-25T03:20:42;20.80;24.80
1381;DHT22;684;48.342;10.096;2022-07-25T03:23:09;20.80;24.90
1381;DHT22;684;48.342;10.096;2022-07-25T03:25:36;20.80;25.00
1381;DHT22;684;48.342;10.096;2022-07-25T03:28:03;20.70;25.10
1381;DHT22;684;48.342;10.096;2022-07-25T03:30:29;20.70;24.80
1381;DHT22;684;48.342;10.096;2022-07-25T03:32:56;20.70;25.00
1381;DHT22;684;48.342;10.096;2022-07-25T03:35:23;20.70;25.10
1381;DHT22;684;48.342;10.096;2022-07-25T03:37:52;20.70;25.20
1381;DHT22;684;48.342;10.096;2022-07-25T03:40:18;20.60;25.90
1381;DHT22;684;48.342;10.096;2022-07-25T03:42:45;20.60;26.10
1381;DHT22;684;48.342;10.096;2022-07-25T03:45:12;20.50;26.40
1381;DHT22;684;48.342;10.096;2022-07-25T03:47:39;20.50;26.30
1381;DHT22;684;48.342;10.096;2022-07-25T03:50:06;20.50;26.20
1381;DHT22;684;48.342;10.096;2022-07-25T03:52:33;20.50;26.50
1381;DHT22;684;48.342;10.096;2022-07-25T03:55:01;20.50;26.90
1381;DHT22;684;48.342;10.096;2022-07-25T03:57:28;20.50;26.60
1381;DHT22;684;48.342;10.096;2022-07-25T03:59:54;20.40;26.30
1381;DHT22;684;48.342;10.096;2022-07-25T04:02:21;20.40;26.50
1381;DHT22;684;48.342;10.096;2022-07-25T04:04:48;20.40;26.30
1381;DHT22;684;48.342;10.096;2022-07-25T04:07:16;20.30;26.20
1381;DHT22;684;48.342;10.096;2022-07-25T04:09:43;20.40;26.00
1381;DHT22;684;48.342;10.096;2022-07-25T04:12:12;20.40;26.00
1381;DHT22;684;48.342;10.096;2022-07-25T04:14:39;20.40;26.00
1381;DHT22;684;48.342;10.096;2022-07-25T04:17:05;20.40;26.10
1381;DHT22;684;48.342;10.096;2022-07-25T04:19:32;20.40;25.90
1381;DHT22;684;48.342;10.096;2022-07-25T04:21:59;20.40;25.80
1381;DHT22;684;48.342;10.096;2022-07-25T04:24:26;20.50;26.10
1381;DHT22;684;48.342;10.096;2022-07-25T04:26:52;20.50;26.20
1381;DHT22;684;48.342;10.096;2022-07-25T04:29:21;20.50;26.10
1381;DHT22;684;48.342;10.096;2022-07-25T04:31:47;20.50;25.90
1381;DHT22;684;48.342;10.096;2022-07-25T04:34:14;20.60;25.80
1381;DHT22;684;48.342;10.096;2022-07-25T04:36:41;20.70;25.90
1381;DHT22;684;48.342;10.096;2022-07-25T04:39:08;20.80;26.30
1381;DHT22;684;48.342;10.096;2022-07-25T04:41:34;20.80;26.60
1381;DHT22;684;48.342;10.096;2022-07-25T04:44:01;20.90;26.20
1381;DHT22;684;48.342;10.096;2022-07-25T04:46:29;21.00;26.10
1381;DHT22;684;48.342;10.096;2022-07-25T04:48:56;21.00;26.70
1381;DHT22;684;48.342;10.096;2022-07-25T04:51:23;21.10;27.80
1381;DHT22;684;48.342;10.096;2022-07-25T04:53:50;21.20;28.10
1381;DHT22;684;48.342;10.096;2022-07-25T04:56:17;21.20;28.90
1381;DHT22;684;48.342;10.096;2022-07-25T04:58:43;21.30;29.10
1381;DHT22;684;48.342;10.096;2022-07-25T05:01:10;21.50;29.70
1381;DHT22;684;48.342;10.096;2022-07-25T05:03:38;22.50;28.70
1381;DHT22;684;48.342;10.096;2022-07-25T05:06:06;23.80;25.00
1381;DHT22;684;48.342;10.096;2022-07-25T05:08:32;25.20;21.20
1381;DHT22;684;48.342;10.096;2022-07-25T05:10:59;26.30;18.30
1381;DHT22;684;48.342;10.096;2022-07-25T05:13:26;27.30;16.10
1381;DHT22;684;48.342;10.096;2022-07-25T05:15:53;28.20;14.50
1381;DHT22;684;48.342;10.096;2022-07-25T05:18:20;29.10;13.00
1381;DHT22;684;48.342;10.096;2022-07-25T05:20:48;29.90;11.30
1381;DHT22;684;48.342;10.096;2022-07-25T05:23:15;30.60;9.80
1381;DHT22;684;48.342;10.096;2022-07-25T05:25:42;31.30;8.60
1381;DHT22;684;48.342;10.096;2022-07-25T05:28:08;32.00;7.40
1381;DHT22;684;48.342;10.096;2022-07-25T05:30:35;32.80;5.90
1381;DHT22;684;48.342;10.096;2022-07-25T05:33:02;33.40;5.00
1381;DHT22;684;48.342;10.096;2022-07-25T05:35:29;34.10;4.40
1381;DHT22;684;48.342;10.096;2022-07-25T05:37:57;34.70;3.10
1381;DHT22;684;48.342;10.096;2022-07-25T05:40:25;35.40;2.30
1381;DHT22;684;48.342;10.096;2022-07-25T05:42:51;35.90;1.20
1381;DHT22;684;48.342;10.096;2022-07-25T05:45:18;36.50;1.00
1381;DHT22;684;48.342;10.096;2022-07-25T05:47:45;37.00;1.00
1381;DHT22;684;48.342;10.096;2022-07-25T05:50:12;37.60;1.00
1381;DHT22;684;48.342;10.096;2022-07-25T05:52:39;38.20;1.00
1381;DHT22;684;48.342;10.096;2022-07-25T05:55:07;38.80;1.00
1381;DHT22;684;48.342;10.096;2022-07-25T05:57:34;39.30;1.00
1381;DHT22;684;48.342;10.096;2022-07-25T06:00:03;39.80;1.00
1381;DHT22;684;48.342;10.096;2022-07-25T06:02:30;40.30;1.00
1381;DHT22;684;48.342;10.096;2022-07-25T06:04:58;40.90;1.00
1381;DHT22;684;48.342;10.096;2022-07-25T06:07:25;41.30;1.00
1381;DHT22;684;48.342;10.096;2022-07-25T06:09:51;41.70;1.00
1381;DHT22;684;48.342;10.096;2022-07-25T06:12:19;42.20;1.00
1381;DHT22;684;48.342;10.096;2022-07-25T06:14:46;42.70;1.00
1381;DHT22;684;48.342;10.096;2022-07-25T06:17:13;43.20;1.00
1381;DHT22;684;48.342;10.096;2022-07-25T06:19:40;43.70;1.00
1381;DHT22;684;48.342;10.096;2022-07-25T06:22:06;44.10;1.00
1381;DHT22;684;48.342;10.096;2022-07-25T06:24:33;44.50;1.00
1381;DHT22;684;48.342;10.096;2022-07-25T06:27:00;45.00;1.00
1381;DHT22;684;48.342;10.096;2022-07-25T06:29:28;45.30;1.00
1381;DHT22;684;48.342;10.096;2022-07-25T06:31:55;45.80;1.00
1381;DHT22;684;48.342;10.096;2022-07-25T06:34:22;46.20;1.00
1381;DHT22;684;48.342;10.096;2022-07-25T06:36:49;46.60;1.00
1381;DHT22;684;48.342;10.096;2022-07-25T06:39:15;47.10;1.00
1381;DHT22;684;48.342;10.096;2022-07-25T06:41:42;47.60;1.00
1381;DHT22;684;48.342;10.096;2022-07-25T06:44:09;48.10;1.00
1381;DHT22;684;48.342;10.096;2022-07-25T06:46:37;48.60;1.00
1381;DHT22;684;48.342;10.096;2022-07-25T06:49:04;49.00;1.00
1381;DHT22;684;48.342;10.096;2022-07-25T06:51:31;49.40;1.00
1381;DHT22;684;48.342;10.096;2022-07-25T06:53:58;49.70;1.00
1381;DHT22;684;48.342;10.096;2022-07-25T06:56:25;50.10;1.00
1381;DHT22;684;48.342;10.096;2022-07-25T07:02:19;51.00;1.00
1381;DHT22;684;48.342;10.096;2022-07-25T07:04:46;51.50;1.00
1381;DHT22;684;48.342;10.096;2022-07-25T07:07:13;51.80;1.00
1381;DHT22;684;48.342;10.096;2022-07-25T07:09:40;52.10;1.00
1381;DHT22;684;48.342;10.096;2022-07-25T07:12:08;52.30;1.00
1381;DHT22;684;48.342;10.096;2022-07-25T07:14:36;52.50;1.00
1381;DHT22;684;48.342;10.096;2022-07-25T07:17:04;53.00;1.00
1381;DHT22;684;48.342;10.096;2022-07-25T07:19:35;53.30;1.00
1381;DHT22;684;48.342;10.096;2022-07-25T07:22:03;53.60;1.00
1381;DHT22;684;48.342;10.096;2022-07-25T07:24:29;53.80;1.00
1381;DHT22;684;48.342;10.096;2022-07-25T07:26:56;53.90;1.00
1381;DHT22;684;48.342;10.096;2022-07-25T07:29:23;54.20;1.00
1381;DHT22;684;48.342;10.096;2022-07-25T07:31:50;54.60;1.00
1381;DHT22;684;48.342;10.096;2022-07-25T07:34:17;55.10;1.00
1381;DHT22;684;48.342;10.096;2022-07-25T07:36:45;55.30;1.00
1381;DHT22;684;48.342;10.096;2022-07-25T07:39:12;55.50;1.00
1381;DHT22;684;48.342;10.096;2022-07-25T07:41:41;55.60;1.00
1381;DHT22;684;48.342;10.096;2022-07-25T07:44:07;56.00;1.00
1381;DHT22;684;48.342;10.096;2022-07-25T07:46:34;56.10;1.00
1381;DHT22;684;48.342;10.096;2022-07-25T07:49:01;56.50;1.00
1381;DHT22;684;48.342;10.096;2022-07-25T07:51:28;56.70;1.00
1381;DHT22;684;48.342;10.096;2022-07-25T07:53:56;57.10;1.00
1381;DHT22;684;48.342;10.096;2022-07-25T07:56:40;57.20;1.00
1381;DHT22;684;48.342;10.096;2022-07-25T07:59:07;57.60;1.00
1381;DHT22;684;48.342;10.096;2022-07-25T08:01:36;58.20;1.00
1381;DHT22;684;48.342;10.096;2022-07-25T08:04:03;58.70;1.00
1381;DHT22;684;48.342;10.096;2022-07-25T08:06:30;59.00;1.00
1381;DHT22;684;48.342;10.096;2022-07-25T08:08:58;59.20;1.00
1381;DHT22;684;48.342;10.096;2022-07-25T08:11:24;59.50;1.00
1381;DHT22;684;48.342;10.096;2022-07-25T08:13:51;59.60;1.00
1381;DHT22;684;48.342;10.096;2022-07-25T08:16:18;60.10;1.00
1381;DHT22;684;48.342;10.096;2022-07-25T08:18:45;60.20;1.00
1381;DHT22;684;48.342;10.096;2022-07-25T08:21:12;60.20;1.00
1381;DHT22;684;48.342;10.096;2022-07-25T08:23:39;60.40;1.00
1381;DHT22;684;48.342;10.096;2022-07-25T08:26:07;60.40;1.00
1381;DHT22;684;48.342;10.096;2022-07-25T08:28:34;60.70;1.00
1381;DHT22;684;48.342;10.096;2022-07-25T08:31:01;60.90;1.00
1381;DHT22;684;48.342;10.096;2022-07-25T08:33:27;61.00;1.00
1381;DHT22;684;48.342;10.096;2022-07-25T08:35:55;61.00;1.00
1381;DHT22;684;48.342;10.096;2022-07-25T08:38:24;60.90;1.00
1381;DHT22;684;48.342;10.096;2022-07-25T08:40:53;61.10;1.00
1381;DHT22;684;48.342;10.096;2022-07-25T08:43:21;61.20;1.00
1381;DHT22;684;48.342;10.096;2022-07-25T08:45:50;61.30;1.00
1381;DHT22;684;48.342;10.096;2022-07-25T08:48:19;61.80;1.00
1381;DHT22;684;48.342;10.096;2022-07-25T08:50:47;62.00;1.00
1381;DHT22;684;48.342;10.096;2022-07-25T08:53:15;62.20;1.00
1381;DHT22;684;48.342;10.096;2022-07-25T08:55:43;61.90;1.00
1381;DHT22;684;48.342;10.096;2022-07-25T08:58:12;62.20;1.00
1381;DHT22;684;48.342;10.096;2022-07-25T09:00:41;62.40;1.00
1381;DHT22;684;48.342;10.096;2022-07-25T09:03:09;62.30;1.00
1381;DHT22;684;48.342;10.096;2022-07-25T09:05:36;62.30;1.00
1381;DHT22;684;48.342;10.096;2022-07-25T09:08:07;62.30;1.00
1381;DHT22;684;48.342;10.096;2022-07-25T09:10:35;62.30;1.00
1381;DHT22;684;48.342;10.096;2022-07-25T09:13:04;62.50;1.00
1381;DHT22;684;48.342;10.096;2022-07-25T09:15:34;62.30;1.00
1381;DHT22;684;48.342;10.096;2022-07-25T09:18:04;62.30;1.00
1381;DHT22;684;48.342;10.096;2022-07-25T09:20:39;62.40;1.00
1381;DHT22;684;48.342;10.096;2022-07-25T09:23:06;62.50;1.00
1381;DHT22;684;48.342;10.096;2022-07-25T09:25:33;62.40;1.00
1381;DHT22;684;48.342;10.096;2022-07-25T09:28:09;62.70;1.00
1381;DHT22;684;48.342;10.096;2022-07-25T09:30:37;62.50;1.00
1381;DHT22;684;48.342;10.096;2022-07-25T09:33:05;62.40;1.00
1381;DHT22;684;48.342;10.096;2022-07-25T09:35:32;61.80;1.00
1381;DHT22;684;48.342;10.096;2022-07-25T09:38:10;61.70;1.00
1381;DHT22;684;48.342;10.096;2022-07-25T09:40:37;61.70;1.00
1381;DHT22;684;48.342;10.096;2022-07-25T09:43:04;61.70;1.00
1381;DHT22;684;48.342;10.096;2022-07-25T09:45:31;61.70;1.00
1381;DHT22;684;48.342;10.096;2022-07-25T09:48:00;61.70;1.00
1381;DHT22;684;48.342;10.096;2022-07-25T09:50:30;61.80;1.00
1381;DHT22;684;48.342;10.096;2022-07-25T09:52:59;61.40;1.00
1381;DHT22;684;48.342;10.096;2022-07-25T09:55:28;60.40;1.00
1381;DHT22;684;48.342;10.096;2022-07-25T09:57:55;58.50;1.00
1381;DHT22;684;48.342;10.096;2022-07-25T10:00:25;55.80;1.00
1381;DHT22;684;48.342;10.096;2022-07-25T10:06:04;51.20;1.00
1381;DHT22;684;48.342;10.096;2022-07-25T10:08:35;49.10;1.00
1381;DHT22;684;48.342;10.096;2022-07-25T10:11:02;47.70;1.00
1381;DHT22;684;48.342;10.096;2022-07-25T10:13:32;46.50;1.00
1381;DHT22;684;48.342;10.096;2022-07-25T10:16:00;45.50;1.00
1381;DHT22;684;48.342;10.096;2022-07-25T10:18:28;44.60;1.00
1381;DHT22;684;48.342;10.096;2022-07-25T10:21:09;43.70;1.00
1381;DHT22;684;48.342;10.096;2022-07-25T10:23:37;42.90;1.00
1381;DHT22;684;48.342;10.096;2022-07-25T10:26:07;42.40;1.00
1381;DHT22;684;48.342;10.096;2022-07-25T10:28:40;41.70;1.00
1381;DHT22;684;48.342;10.096;2022-07-25T10:31:18;41.10;1.00
1381;DHT22;684;48.342;10.096;2022-07-25T10:33:49;40.60;1.00
1381;DHT22;684;48.342;10.096;2022-07-25T10:36:18;40.10;1.00
1381;DHT22;684;48.342;10.096;2022-07-25T10:38:45;39.70;1.00
1381;DHT22;684;48.342;10.096;2022-07-25T10:41:14;39.40;1.00
1381;DHT22;684;48.342;10.096;2022-07-25T10:43:44;39.10;1.00
1381;DHT22;684;48.342;10.096;2022-07-25T10:46:12;38.70;1.00
1381;DHT22;684;48.342;10.096;2022-07-25T10:48:40;38.40;1.00
1381;DHT22;684;48.342;10.096;2022-07-25T10:51:08;38.10;1.00
1381;DHT22;684;48.342;10.096;2022-07-25T10:53:46;37.90;1.00
1381;DHT22;684;48.342;10.096;2022-07-25T10:56:15;37.70;1.00
1381;DHT22;684;48.342;10.096;2022-07-25T10:58:44;37.50;1.00
1381;DHT22;684;48.342;10.096;2022-07-25T11:01:11;37.30;1.00
1381;DHT22;684;48.342;10.096;2022-07-25T11:03:39;37.10;1.00
1381;DHT22;684;48.342;10.096;2022-07-25T11:06:10;37.00;1.00
1381;DHT22;684;48.342;10.096;2022-07-25T11:08:38;36.90;1.00
1381;DHT22;684;48.342;10.096;2022-07-25T11:11:05;36.80;1.00
1381;DHT22;684;48.342;10.096;2022-07-25T11:13:36;36.70;1.00
1381;DHT22;684;48.342;10.096;2022-07-25T11:16:03;36.70;1.00
1381;DHT22;684;48.342;10.096;2022-07-25T11:18:32;36.60;1.00
1381;DHT22;684;48.342;10.096;2022-07-25T11:21:00;36.50;1.00
1381;DHT22;684;48.342;10.096;2022-07-25T11:23:27;36.40;1.00
1381;DHT22;684;48.342;10.096;2022-07-25T11:26:05;36.30;1.00
1381;DHT22;684;48.342;10.096;2022-07-25T11:28:39;36.20;1.00
1381;DHT22;684;48.342;10.096;2022-07-25T11:31:06;36.20;1.00
1381;DHT22;684;48.342;10.096;2022-07-25T11:33:34;36.10;1.00
1381;DHT22;684;48.342;10.096;2022-07-25T11:36:01;36.10;1.00
1381;DHT22;684;48.342;10.096;2022-07-25T11:38:28;36.10;1.00
1381;DHT22;684;48.342;10.096;2022-07-25T11:40:55;36.00;1.00
1381;DHT22;684;48.342;10.096;2022-07-25T11:43:24;36.00;1.00
1381;DHT22;684;48.342;10.096;2022-07-25T11:45:59;35.90;1.00
1381;DHT22;684;48.342;10.096;2022-07-25T11:48:34;35.90;1.00
1381;DHT22;684;48.342;10.096;2022-07-25T11:51:09;35.80;1.00
1381;DHT22;684;48.342;10.096;2022-07-25T11:53:42;35.80;1.00
1381;DHT22;684;48.342;10.096;2022-07-25T11:56:13;35.80;1.00
1381;DHT22;684;48.342;10.096;2022-07-25T11:58:43;35.70;1.00
1381;DHT22;684;48.342;10.096;2022-07-25T12:01:11;35.80;1.00
1381;DHT22;684;48.342;10.096;2022-07-25T12:03:38;35.60;1.00
1381;DHT22;684;48.342;10.096;2022-07-25T12:06:07;35.60;1.00
1381;DHT22;684;48.342;10.096;2022-07-25T12:08:37;35.60;1.00
1381;DHT22;684;48.342;10.096;2022-07-25T12:11:15;35.50;1.00
1381;DHT22;684;48.342;10.096;2022-07-25T12:13:44;35.50;1.00
1381;DHT22;684;48.342;10.096;2022-07-25T12:16:11;35.40;1.00
1381;DHT22;684;48.342;10.096;2022-07-25T12:18:38;35.40;1.00
1381;DHT22;684;48.342;10.096;2022-07-25T12:21:05;35.40;1.00
1381;DHT22;684;48.342;10.096;2022-07-25T12:23:32;35.30;1.00
1381;DHT22;684;48.342;10.096;2022-07-25T12:25:59;35.30;1.00
1381;DHT22;684;48.342;10.096;2022-07-25T12:28:26;35.20;1.00
1381;DHT22;684;48.342;10.096;2022-07-25T12:30:55;35.10;1.00
1381;DHT22;684;48.342;10.096;2022-07-25T12:33:21;35.00;1.00
1381;DHT22;684;48.342;10.096;2022-07-25T12:35:49;35.00;1.00
1381;DHT22;684;48.342;10.096;2022-07-25T12:38:16;34.90;1.00
1381;DHT22;684;48.342;10.096;2022-07-25T12:40:43;34.90;1.00
1381;DHT22;684;48.342;10.096;2022-07-25T12:43:09;34.90;1.00
1381;DHT22;684;48.342;10.096;2022-07-25T12:45:36;34.90;1.00
1381;DHT22;684;48.342;10.096;2022-07-25T12:48:05;34.90;1.00
1381;DHT22;684;48.342;10.096;2022-07-25T12:50:32;34.90;1.00
1381;DHT22;684;48.342;10.096;2022-07-25T12:52:59;34.90;1.00
1381;DHT22;684;48.342;10.096;2022-07-25T12:55:26;34.90;1.00
1381;DHT22;684;48.342;10.096;2022-07-25T12:57:53;34.90;1.00
1381;DHT22;684;48.342;10.096;2022-07-25T13:00:21;34.90;1.00
1381;DHT22;684;48.342;10.096;2022-07-25T13:02:49;34.90;1.00
1381;DHT22;684;48.342;10.096;2022-07-25T13:05:19;34.90;1.00
1381;DHT22;684;48.342;10.096;2022-07-25T13:07:46;34.90;1.00
1381;DHT22;684;48.342;10.096;2022-07-25T13:10:14;34.90;1.00
1381;DHT22;684;48.342;10.096;2022-07-25T13:12:41;34.90;1.00
1381;DHT22;684;48.342;10.096;2022-07-25T13:15:09;34.90;1.00
1381;DHT22;684;48.342;10.096;2022-07-25T13:17:36;34.80;1.00
1381;DHT22;684;48.342;10.096;2022-07-25T13:20:05;34.80;1.00
1381;DHT22;684;48.342;10.096;2022-07-25T13:22:34;34.80;1.00
1381;DHT22;684;48.342;10.096;2022-07-25T13:25:01;34.70;1.00
1381;DHT22;684;48.342;10.096;2022-07-25T13:27:27;34.70;1.00
1381;DHT22;684;48.342;10.096;2022-07-25T13:29:54;34.70;1.00
1381;DHT22;684;48.342;10.096;2022-07-25T13:32:22;34.70;1.00
1381;DHT22;684;48.342;10.096;2022-07-25T13:34:50;34.70;1.00
1381;DHT22;684;48.342;10.096;2022-07-25T13:37:17;34.70;1.00
1381;DHT22;684;48.342;10.096;2022-07-25T13:39:45;34.70;1.00
1381;DHT22;684;48.342;10.096;2022-07-25T13:42:12;34.70;1.00
1381;DHT22;684;48.342;10.096;2022-07-25T13:44:39;34.80;1.00
1381;DHT22;684;48.342;10.096;2022-07-25T13:47:05;34.80;1.00
1381;DHT22;684;48.342;10.096;2022-07-25T13:49:32;34.90;1.00
1381;DHT22;684;48.342;10.096;2022-07-25T13:52:01;34.90;1.00
1381;DHT22;684;48.342;10.096;2022-07-25T13:54:28;34.90;1.00
1381;DHT22;684;48.342;10.096;2022-07-25T13:56:56;34.90;1.00
1381;DHT22;684;48.342;10.096;2022-07-25T13:59:23;34.90;1.00
1381;DHT22;684;48.342;10.096;2022-07-25T14:01:49;34.90;1.00
1381;DHT22;684;48.342;10.096;2022-07-25T14:04:16;34.80;1.00
1381;DHT22;684;48.342;10.096;2022-07-25T14:06:43;34.80;1.00
1381;DHT22;684;48.342;10.096;2022-07-25T14:09:10;34.80;1.00
1381;DHT22;684;48.342;10.096;2022-07-25T14:11:37;34.90;1.00
1381;DHT22;684;48.342;10.096;2022-07-25T14:14:05;35.00;1.00
1381;DHT22;684;48.342;10.096;2022-07-25T14:16:32;35.00;1.00
1381;DHT22;684;48.342;10.096;2022-07-25T14:18:59;35.00;1.00
1381;DHT22;684;48.342;10.096;2022-07-25T14:21:26;35.00;1.00
1381;DHT22;684;48.342;10.096;2022-07-25T14:23:53;35.00;1.00
1381;DHT22;684;48.342;10.096;2022-07-25T14:26:20;35.00;1.00
1381;DHT22;684;48.342;10.096;2022-07-25T14:28:47;35.00;1.00
1381;DHT22;684;48.342;10.096;2022-07-25T14:31:15;35.00;1.00
1381;DHT22;684;48.342;10.096;2022-07-25T14:33:42;35.10;1.00
1381;DHT22;684;48.342;10.096;2022-07-25T14:36:09;35.20;1.00
1381;DHT22;684;48.342;10.096;2022-07-25T14:38:37;35.20;1.00
1381;DHT22;684;48.342;10.096;2022-07-25T14:41:32;35.20;1.00
1381;DHT22;684;48.342;10.096;2022-07-25T14:43:59;35.10;1.00
1381;DHT22;684;48.342;10.096;2022-07-25T14:46:27;35.10;1.00
1381;DHT22;684;48.342;10.096;2022-07-25T14:48:54;35.20;1.00
1381;DHT22;684;48.342;10.096;2022-07-25T14:51:22;35.20;1.00
1381;DHT22;684;48.342;10.096;2022-07-25T14:53:49;35.30;1.00
1381;DHT22;684;48.342;10.096;2022-07-25T14:56:16;35.30;1.00
1381;DHT22;684;48.342;10.096;2022-07-25T14:58:43;35.20;1.00
1381;DHT22;684;48.342;10.096;2022-07-25T15:01:09;35.10;1.00
1381;DHT22;684;48.342;10.096;2022-07-25T15:03:38;35.00;1.00
1381;DHT22;684;48.342;10.096;2022-07-25T15:06:05;35.00;1.00
1381;DHT22;684;48.342;10.096;2022-07-25T15:08:35;35.00;1.00
1381;DHT22;684;48.342;10.096;2022-07-25T15:11:02;35.00;1.00
1381;DHT22;684;48.342;10.096;2022-07-25T15:13:29;34.90;1.00
1381;DHT22;684;48.342;10.096;2022-07-25T15:15:56;34.90;1.00
1381;DHT22;684;48.342;10.096;2022-07-25T15:18:23;34.80;1.00
1381;DHT22;684;48.342;10.096;2022-07-25T15:20:51;34.70;1.00
1381;DHT22;684;48.342;10.096;2022-07-25T15:23:18;34.60;1.00
1381;DHT22;684;48.342;10.096;2022-07-25T15:25:49;34.60;1.00
1381;DHT22;684;48.342;10.096;2022-07-25T15:28:15;34.50;1.00
1381;DHT22;684;48.342;10.096;2022-07-25T15:30:42;34.40;1.00
1381;DHT22;684;48.342;10.096;2022-07-25T15:33:09;34.30;1.00
1381;DHT22;684;48.342;10.096;2022-07-25T15:35:36;34.30;1.00
1381;DHT22;684;48.342;10.096;2022-07-25T15:38:04;34.20;1.00
1381;DHT22;684;48.342;10.096;2022-07-25T15:40:31;34.20;1.00
1381;DHT22;684;48.342;10.096;2022-07-25T15:42:57;34.10;1.00
1381;DHT22;684;48.342;10.096;2022-07-25T15:45:24;34.10;1.00
1381;DHT22;684;48.342;10.096;2022-07-25T15:47:51;34.20;1.00
1381;DHT22;684;48.342;10.096;2022-07-25T15:50:19;34.30;1.00
1381;DHT22;684;48.342;10.096;2022-07-25T15:52:46;34.30;1.00
1381;DHT22;684;48.342;10.096;2022-07-25T15:55:18;34.20;1.00
1381;DHT22;684;48.342;10.096;2022-07-25T15:57:45;34.10;1.00
1381;DHT22;684;48.342;10.096;2022-07-25T16:00:12;34.00;1.00
1381;DHT22;684;48.342;10.096;2022-07-25T16:02:39;33.90;1.00
1381;DHT22;684;48.342;10.096;2022-07-25T16:05:06;33.80;1.00
1381;DHT22;684;48.342;10.096;2022-07-25T16:07:34;33.70;1.00
1381;DHT22;684;48.342;10.096;2022-07-25T16:10:01;33.60;1.00
1381;DHT22;684;48.342;10.096;2022-07-25T16:12:29;33.60;1.00
1381;DHT22;684;48.342;10.096;2022-07-25T16:15:11;33.50;1.00
1381;DHT22;684;48.342;10.096;2022-07-25T16:17:38;33.50;1.00
1381;DHT22;684;48.342;10.096;2022-07-25T16:20:06;33.60;1.00
1381;DHT22;684;48.342;10.096;2022-07-25T16:22:35;33.50;1.00